sensor_id;sensor_type;location;lat;lon;timestamp;P1;durP1;ratioP1;P2;durP2;ratioP2
78612;SDS011;67933;51.060;3.638;2023-09-12T00:00:55;26.90;;;14.73;;
78612;SDS011;67933;51.060;3.638;2023-09-12T00:03:23;31.40;;;17.15;;
78612;SDS011;67933;51.060;3.638;2023-09-12T00:05:52;28.40;;;15.55;;
78612;SDS011;67933;51.060;3.638;2023-09-12T00:08:17;26.00;;;15.38;;
78612;SDS011;67933;51.060;3.638;2023-09-12T00:10:43;26.42;;;14.85;;
78612;SDS011;67933;51.060;3.638;2023-09-12T00:13:08;22.83;;;12.48;;
78612;SDS011;67933;51.060;3.638;2023-09-12T00:15:33;31.45;;;16.23;;
78612;SDS011;67933;51.060;3.638;2023-09-12T00:17:59;23.33;;;13.90;;
78612;SDS011;67933;51.060;3.638;2023-09-12T00:20:24;28.55;;;15.32;;
78612;SDS011;67933;51.060;3.638;2023-09-12T00:22:49;21.08;;;12.85;;
78612;SDS011;67933;51.060;3.638;2023-09-12T00:25:15;24.75;;;13.55;;
78612;SDS011;67933;51.060;3.638;2023-09-12T00:27:40;24.85;;;13.68;;
78612;SDS011;67933;51.060;3.638;2023-09-12T00:30:06;23.90;;;12.18;;
78612;SDS011;67933;51.060;3.638;2023-09-12T00:32:32;19.50;;;12.65;;
78612;SDS011;67933;51.060;3.638;2023-09-12T00:34:57;22.25;;;13.23;;
78612;SDS011;67933;51.060;3.638;2023-09-12T00:37:22;21.67;;;11.98;;
78612;SDS011;67933;51.060;3.638;2023-09-12T00:39:48;19.40;;;11.38;;
78612;SDS011;67933;51.060;3.638;2023-09-12T00:42:13;19.98;;;11.98;;
78612;SDS011;67933;51.060;3.638;2023-09-12T00:44:39;18.58;;;11.32;;
78612;SDS011;67933;51.060;3.638;2023-09-12T00:47:04;18.85;;;11.00;;
78612;SDS011;67933;51.060;3.638;2023-09-12T00:49:30;21.90;;;12.32;;
78612;SDS011;67933;51.060;3.638;2023-09-12T00:51:57;20.40;;;11.98;;
78612;SDS011;67933;51.060;3.638;2023-09-12T00:54:23;24.80;;;14.52;;
78612;SDS011;67933;51.060;3.638;2023-09-12T00:56:49;26.20;;;14.77;;
78612;SDS011;67933;51.060;3.638;2023-09-12T00:59:15;30.25;;;16.80;;
78612;SDS011;67933;51.060;3.638;2023-09-12T01:01:42;24.45;;;15.15;;
78612;SDS011;67933;51.060;3.638;2023-09-12T01:04:08;28.80;;;15.80;;
78612;SDS011;67933;51.060;3.638;2023-09-12T01:06:35;25.05;;;13.82;;
78612;SDS011;67933;51.060;3.638;2023-09-12T01:09:00;22.95;;;13.57;;
78612;SDS011;67933;51.060;3.638;2023-09-12T01:11:26;27.20;;;14.07;;
78612;SDS011;67933;51.060;3.638;2023-09-12T01:13:51;27.63;;;15.35;;
78612;SDS011;67933;51.060;3.638;2023-09-12T01:16:17;24.58;;;14.45;;
78612;SDS011;67933;51.060;3.638;2023-09-12T01:18:42;25.77;;;14.27;;
78612;SDS011;67933;51.060;3.638;2023-09-12T01:23:44;25.30;;;15.38;;
78612;SDS011;67933;51.060;3.638;2023-09-12T01:28:55;31.60;;;16.20;;
78612;SDS011;67933;51.060;3.638;2023-09-12T01:31:22;29.58;;;16.33;;
78612;SDS011;67933;51.060;3.638;2023-09-12T01:33:49;27.40;;;15.63;;
78612;SDS011;67933;51.060;3.638;2023-09-12T01:36:20;36.45;;;18.67;;
78612;SDS011;67933;51.060;3.638;2023-09-12T01:38:45;40.95;;;19.95;;
78612;SDS011;67933;51.060;3.638;2023-09-12T01:41:11;34.33;;;18.08;;
78612;SDS011;67933;51.060;3.638;2023-09-12T01:43:37;34.25;;;18.23;;
78612;SDS011;67933;51.060;3.638;2023-09-12T01:46:04;35.22;;;17.60;;
78612;SDS011;67933;51.060;3.638;2023-09-12T01:48:33;40.28;;;19.48;;
78612;SDS011;67933;51.060;3.638;2023-09-12T01:51:01;41.40;;;20.10;;
78612;SDS011;67933;51.060;3.638;2023-09-12T01:53:28;34.22;;;19.00;;
78612;SDS011;67933;51.060;3.638;2023-09-12T01:55:55;37.20;;;19.98;;
78612;SDS011;67933;51.060;3.638;2023-09-12T02:00:48;34.13;;;18.40;;
78612;SDS011;67933;51.060;3.638;2023-09-12T02:03:14;40.97;;;19.60;;
78612;SDS011;67933;51.060;3.638;2023-09-12T02:05:39;37.22;;;18.40;;
78612;SDS011;67933;51.060;3.638;2023-09-12T02:08:05;35.00;;;18.05;;
78612;SDS011;67933;51.060;3.638;2023-09-12T02:10:30;34.55;;;17.85;;
78612;SDS011;67933;51.060;3.638;2023-09-12T02:12:57;37.90;;;19.00;;
78612;SDS011;67933;51.060;3.638;2023-09-12T02:15:22;35.53;;;19.13;;
78612;SDS011;67933;51.060;3.638;2023-09-12T02:17:47;35.33;;;18.95;;
78612;SDS011;67933;51.060;3.638;2023-09-12T02:20:15;37.45;;;18.55;;
78612;SDS011;67933;51.060;3.638;2023-09-12T02:22:41;35.78;;;18.95;;
78612;SDS011;67933;51.060;3.638;2023-09-12T02:25:07;35.42;;;19.00;;
78612;SDS011;67933;51.060;3.638;2023-09-12T02:27:33;34.42;;;18.23;;
78612;SDS011;67933;51.060;3.638;2023-09-12T02:29:59;33.63;;;18.65;;
78612;SDS011;67933;51.060;3.638;2023-09-12T02:32:24;37.05;;;18.70;;
78612;SDS011;67933;51.060;3.638;2023-09-12T02:34:49;38.30;;;19.75;;
78612;SDS011;67933;51.060;3.638;2023-09-12T02:37:15;38.50;;;19.33;;
78612;SDS011;67933;51.060;3.638;2023-09-12T02:39:41;34.97;;;18.92;;
78612;SDS011;67933;51.060;3.638;2023-09-12T02:42:06;36.97;;;17.85;;
78612;SDS011;67933;51.060;3.638;2023-09-12T02:44:32;36.92;;;19.08;;
78612;SDS011;67933;51.060;3.638;2023-09-12T02:46:57;34.95;;;18.63;;
78612;SDS011;67933;51.060;3.638;2023-09-12T02:49:22;36.53;;;20.13;;
78612;SDS011;67933;51.060;3.638;2023-09-12T02:51:48;41.08;;;19.98;;
78612;SDS011;67933;51.060;3.638;2023-09-12T02:54:13;40.97;;;20.23;;
78612;SDS011;67933;51.060;3.638;2023-09-12T02:56:39;38.83;;;19.92;;
78612;SDS011;67933;51.060;3.638;2023-09-12T02:59:04;37.40;;;19.77;;
78612;SDS011;67933;51.060;3.638;2023-09-12T03:01:30;41.50;;;20.80;;
78612;SDS011;67933;51.060;3.638;2023-09-12T03:03:55;37.15;;;18.58;;
78612;SDS011;67933;51.060;3.638;2023-09-12T03:06:21;36.15;;;18.52;;
78612;SDS011;67933;51.060;3.638;2023-09-12T03:08:47;36.20;;;17.70;;
78612;SDS011;67933;51.060;3.638;2023-09-12T03:11:12;36.22;;;18.45;;
78612;SDS011;67933;51.060;3.638;2023-09-12T03:13:39;37.35;;;18.20;;
78612;SDS011;67933;51.060;3.638;2023-09-12T03:18:34;42.47;;;18.98;;
78612;SDS011;67933;51.060;3.638;2023-09-12T03:21:00;36.35;;;19.17;;
78612;SDS011;67933;51.060;3.638;2023-09-12T03:23:25;34.67;;;18.35;;
78612;SDS011;67933;51.060;3.638;2023-09-12T03:25:52;37.25;;;18.77;;
78612;SDS011;67933;51.060;3.638;2023-09-12T03:28:17;37.10;;;19.90;;
78612;SDS011;67933;51.060;3.638;2023-09-12T03:30:43;38.53;;;19.42;;
78612;SDS011;67933;51.060;3.638;2023-09-12T03:33:08;36.38;;;19.50;;
78612;SDS011;67933;51.060;3.638;2023-09-12T03:35:34;37.42;;;18.48;;
78612;SDS011;67933;51.060;3.638;2023-09-12T03:38:00;39.40;;;19.17;;
78612;SDS011;67933;51.060;3.638;2023-09-12T03:40:28;39.00;;;19.27;;
78612;SDS011;67933;51.060;3.638;2023-09-12T03:42:57;39.78;;;19.75;;
78612;SDS011;67933;51.060;3.638;2023-09-12T03:45:23;38.65;;;19.00;;
78612;SDS011;67933;51.060;3.638;2023-09-12T03:47:49;45.45;;;20.00;;
78612;SDS011;67933;51.060;3.638;2023-09-12T03:50:14;40.70;;;19.58;;
78612;SDS011;67933;51.060;3.638;2023-09-12T03:52:40;37.08;;;19.95;;
78612;SDS011;67933;51.060;3.638;2023-09-12T03:55:05;41.33;;;21.30;;
78612;SDS011;67933;51.060;3.638;2023-09-12T03:57:31;42.08;;;20.40;;
78612;SDS011;67933;51.060;3.638;2023-09-12T03:59:57;40.42;;;21.08;;
78612;SDS011;67933;51.060;3.638;2023-09-12T04:02:22;43.70;;;20.15;;
78612;SDS011;67933;51.060;3.638;2023-09-12T04:04:48;44.42;;;19.92;;
78612;SDS011;67933;51.060;3.638;2023-09-12T04:07:13;44.58;;;21.25;;
78612;SDS011;67933;51.060;3.638;2023-09-12T04:09:39;37.45;;;19.60;;
78612;SDS011;67933;51.060;3.638;2023-09-12T04:12:04;41.72;;;20.45;;
78612;SDS011;67933;51.060;3.638;2023-09-12T04:16:57;33.67;;;17.40;;
78612;SDS011;67933;51.060;3.638;2023-09-12T04:19:22;40.47;;;19.33;;
78612;SDS011;67933;51.060;3.638;2023-09-12T04:21:47;39.00;;;19.65;;
78612;SDS011;67933;51.060;3.638;2023-09-12T04:24:13;40.70;;;19.83;;
78612;SDS011;67933;51.060;3.638;2023-09-12T04:26:38;47.17;;;22.83;;
78612;SDS011;67933;51.060;3.638;2023-09-12T04:29:04;40.05;;;20.67;;
78612;SDS011;67933;51.060;3.638;2023-09-12T04:31:29;43.13;;;20.88;;
78612;SDS011;67933;51.060;3.638;2023-09-12T04:33:54;39.78;;;19.63;;
78612;SDS011;67933;51.060;3.638;2023-09-12T04:36:20;36.20;;;18.70;;
78612;SDS011;67933;51.060;3.638;2023-09-12T04:38:46;41.67;;;20.35;;
78612;SDS011;67933;51.060;3.638;2023-09-12T04:41:11;42.10;;;20.70;;
78612;SDS011;67933;51.060;3.638;2023-09-12T04:43:40;35.58;;;18.83;;
78612;SDS011;67933;51.060;3.638;2023-09-12T04:46:06;40.15;;;20.42;;
78612;SDS011;67933;51.060;3.638;2023-09-12T04:48:32;42.53;;;21.42;;
78612;SDS011;67933;51.060;3.638;2023-09-12T04:50:57;44.42;;;20.55;;
78612;SDS011;67933;51.060;3.638;2023-09-12T04:53:23;48.25;;;20.98;;
78612;SDS011;67933;51.060;3.638;2023-09-12T04:55:48;52.05;;;21.75;;
78612;SDS011;67933;51.060;3.638;2023-09-12T04:58:13;48.25;;;21.30;;
78612;SDS011;67933;51.060;3.638;2023-09-12T05:00:39;57.88;;;24.35;;
78612;SDS011;67933;51.060;3.638;2023-09-12T05:03:05;59.50;;;25.23;;
78612;SDS011;67933;51.060;3.638;2023-09-12T05:05:31;60.17;;;25.85;;
78612;SDS011;67933;51.060;3.638;2023-09-12T05:08:00;65.07;;;27.85;;
78612;SDS011;67933;51.060;3.638;2023-09-12T05:10:26;65.00;;;26.73;;
78612;SDS011;67933;51.060;3.638;2023-09-12T05:12:51;65.18;;;27.20;;
78612;SDS011;67933;51.060;3.638;2023-09-12T05:15:16;65.80;;;26.40;;
78612;SDS011;67933;51.060;3.638;2023-09-12T05:17:42;66.47;;;27.15;;
78612;SDS011;67933;51.060;3.638;2023-09-12T05:20:07;66.70;;;26.67;;
78612;SDS011;67933;51.060;3.638;2023-09-12T05:22:33;69.95;;;25.52;;
78612;SDS011;67933;51.060;3.638;2023-09-12T05:24:59;63.03;;;27.83;;
78612;SDS011;67933;51.060;3.638;2023-09-12T05:27:24;61.53;;;25.58;;
78612;SDS011;67933;51.060;3.638;2023-09-12T05:29:49;67.93;;;27.40;;
78612;SDS011;67933;51.060;3.638;2023-09-12T05:32:15;62.00;;;24.98;;
78612;SDS011;67933;51.060;3.638;2023-09-12T05:34:42;67.85;;;26.45;;
78612;SDS011;67933;51.060;3.638;2023-09-12T05:37:10;69.75;;;27.60;;
78612;SDS011;67933;51.060;3.638;2023-09-12T05:39:35;61.58;;;25.30;;
78612;SDS011;67933;51.060;3.638;2023-09-12T05:42:01;65.90;;;25.42;;
78612;SDS011;67933;51.060;3.638;2023-09-12T05:44:26;71.22;;;27.05;;
78612;SDS011;67933;51.060;3.638;2023-09-12T05:46:51;57.63;;;25.35;;
78612;SDS011;67933;51.060;3.638;2023-09-12T05:49:17;62.83;;;25.58;;
78612;SDS011;67933;51.060;3.638;2023-09-12T05:51:42;64.57;;;26.65;;
78612;SDS011;67933;51.060;3.638;2023-09-12T05:54:08;65.15;;;25.38;;
78612;SDS011;67933;51.060;3.638;2023-09-12T05:56:35;59.83;;;24.30;;
78612;SDS011;67933;51.060;3.638;2023-09-12T05:59:00;59.20;;;25.50;;
78612;SDS011;67933;51.060;3.638;2023-09-12T06:01:25;60.63;;;25.13;;
78612;SDS011;67933;51.060;3.638;2023-09-12T06:03:51;59.50;;;23.88;;
78612;SDS011;67933;51.060;3.638;2023-09-12T06:06:16;63.30;;;25.65;;
78612;SDS011;67933;51.060;3.638;2023-09-12T06:08:42;64.97;;;26.20;;
78612;SDS011;67933;51.060;3.638;2023-09-12T06:11:07;63.05;;;24.10;;
78612;SDS011;67933;51.060;3.638;2023-09-12T06:13:33;62.00;;;24.42;;
78612;SDS011;67933;51.060;3.638;2023-09-12T06:18:26;56.58;;;23.23;;
78612;SDS011;67933;51.060;3.638;2023-09-12T06:20:54;54.50;;;22.80;;
78612;SDS011;67933;51.060;3.638;2023-09-12T06:23:19;57.33;;;24.80;;
78612;SDS011;67933;51.060;3.638;2023-09-12T06:25:44;58.55;;;25.13;;
78612;SDS011;67933;51.060;3.638;2023-09-12T06:28:10;65.72;;;25.88;;
78612;SDS011;67933;51.060;3.638;2023-09-12T06:30:35;70.65;;;24.67;;
78612;SDS011;67933;51.060;3.638;2023-09-12T06:33:01;67.13;;;24.33;;
78612;SDS011;67933;51.060;3.638;2023-09-12T06:35:26;64.40;;;25.05;;
78612;SDS011;67933;51.060;3.638;2023-09-12T06:37:52;62.47;;;26.13;;
78612;SDS011;67933;51.060;3.638;2023-09-12T06:40:18;62.83;;;25.23;;
78612;SDS011;67933;51.060;3.638;2023-09-12T06:42:44;69.30;;;25.42;;
78612;SDS011;67933;51.060;3.638;2023-09-12T06:45:09;76.13;;;25.38;;
78612;SDS011;67933;51.060;3.638;2023-09-12T06:47:35;56.03;;;23.80;;
78612;SDS011;67933;51.060;3.638;2023-09-12T06:50:01;61.85;;;25.20;;
78612;SDS011;67933;51.060;3.638;2023-09-12T06:52:27;63.72;;;24.42;;
78612;SDS011;67933;51.060;3.638;2023-09-12T06:54:53;59.88;;;25.65;;
78612;SDS011;67933;51.060;3.638;2023-09-12T06:57:18;55.88;;;24.27;;
78612;SDS011;67933;51.060;3.638;2023-09-12T06:59:43;61.92;;;25.13;;
78612;SDS011;67933;51.060;3.638;2023-09-12T07:02:09;65.05;;;25.20;;
78612;SDS011;67933;51.060;3.638;2023-09-12T07:04:36;59.22;;;23.50;;
78612;SDS011;67933;51.060;3.638;2023-09-12T07:07:02;59.85;;;25.73;;
78612;SDS011;67933;51.060;3.638;2023-09-12T07:09:27;54.95;;;24.25;;
78612;SDS011;67933;51.060;3.638;2023-09-12T07:11:52;66.00;;;25.50;;
78612;SDS011;67933;51.060;3.638;2023-09-12T07:14:18;60.33;;;24.83;;
78612;SDS011;67933;51.060;3.638;2023-09-12T07:16:43;64.13;;;25.20;;
78612;SDS011;67933;51.060;3.638;2023-09-12T07:19:09;62.63;;;24.60;;
78612;SDS011;67933;51.060;3.638;2023-09-12T07:21:35;78.70;;;24.55;;
78612;SDS011;67933;51.060;3.638;2023-09-12T07:24:00;70.00;;;26.55;;
78612;SDS011;67933;51.060;3.638;2023-09-12T07:26:26;77.07;;;27.50;;
78612;SDS011;67933;51.060;3.638;2023-09-12T07:28:51;75.75;;;28.42;;
78612;SDS011;67933;51.060;3.638;2023-09-12T07:31:17;71.57;;;27.85;;
78612;SDS011;67933;51.060;3.638;2023-09-12T07:33:43;84.85;;;29.17;;
78612;SDS011;67933;51.060;3.638;2023-09-12T07:36:08;92.63;;;30.48;;
78612;SDS011;67933;51.060;3.638;2023-09-12T07:38:34;67.03;;;27.98;;
78612;SDS011;67933;51.060;3.638;2023-09-12T07:41:00;61.13;;;26.70;;
78612;SDS011;67933;51.060;3.638;2023-09-12T07:43:27;78.10;;;29.80;;
78612;SDS011;67933;51.060;3.638;2023-09-12T07:45:56;60.28;;;26.88;;
78612;SDS011;67933;51.060;3.638;2023-09-12T07:48:22;67.30;;;27.23;;
78612;SDS011;67933;51.060;3.638;2023-09-12T07:50:48;66.03;;;27.83;;
78612;SDS011;67933;51.060;3.638;2023-09-12T07:53:14;64.93;;;27.10;;
78612;SDS011;67933;51.060;3.638;2023-09-12T07:55:39;56.55;;;25.30;;
78612;SDS011;67933;51.060;3.638;2023-09-12T07:58:14;72.72;;;27.52;;
78612;SDS011;67933;51.060;3.638;2023-09-12T08:00:41;67.75;;;25.15;;
78612;SDS011;67933;51.060;3.638;2023-09-12T08:03:07;64.72;;;26.52;;
78612;SDS011;67933;51.060;3.638;2023-09-12T08:05:33;65.20;;;24.75;;
78612;SDS011;67933;51.060;3.638;2023-09-12T08:07:58;66.38;;;25.77;;
78612;SDS011;67933;51.060;3.638;2023-09-12T08:10:23;62.65;;;25.60;;
78612;SDS011;67933;51.060;3.638;2023-09-12T08:12:49;60.42;;;24.15;;
78612;SDS011;67933;51.060;3.638;2023-09-12T08:15:14;64.53;;;26.42;;
78612;SDS011;67933;51.060;3.638;2023-09-12T08:17:40;60.13;;;25.70;;
78612;SDS011;67933;51.060;3.638;2023-09-12T08:20:06;65.82;;;27.02;;
78612;SDS011;67933;51.060;3.638;2023-09-12T08:22:35;57.83;;;24.50;;
78612;SDS011;67933;51.060;3.638;2023-09-12T08:25:01;55.30;;;23.52;;
78612;SDS011;67933;51.060;3.638;2023-09-12T08:27:26;57.45;;;23.63;;
78612;SDS011;67933;51.060;3.638;2023-09-12T08:29:52;49.85;;;21.90;;
78612;SDS011;67933;51.060;3.638;2023-09-12T08:32:17;49.05;;;20.83;;
78612;SDS011;67933;51.060;3.638;2023-09-12T08:34:43;41.38;;;19.00;;
78612;SDS011;67933;51.060;3.638;2023-09-12T08:37:08;49.50;;;21.30;;
78612;SDS011;67933;51.060;3.638;2023-09-12T08:39:40;49.55;;;20.75;;
78612;SDS011;67933;51.060;3.638;2023-09-12T08:42:12;46.47;;;20.70;;
78612;SDS011;67933;51.060;3.638;2023-09-12T08:44:40;45.05;;;19.45;;
78612;SDS011;67933;51.060;3.638;2023-09-12T08:49:33;56.80;;;22.55;;
78612;SDS011;67933;51.060;3.638;2023-09-12T08:52:00;55.47;;;22.95;;
78612;SDS011;67933;51.060;3.638;2023-09-12T08:54:25;57.40;;;24.63;;
78612;SDS011;67933;51.060;3.638;2023-09-12T08:56:51;51.50;;;22.50;;
78612;SDS011;67933;51.060;3.638;2023-09-12T08:59:17;56.50;;;23.77;;
78612;SDS011;67933;51.060;3.638;2023-09-12T09:01:42;58.08;;;25.38;;
78612;SDS011;67933;51.060;3.638;2023-09-12T09:04:09;56.08;;;26.02;;
78612;SDS011;67933;51.060;3.638;2023-09-12T09:06:35;60.28;;;26.67;;
78612;SDS011;67933;51.060;3.638;2023-09-12T09:09:04;64.57;;;28.20;;
78612;SDS011;67933;51.060;3.638;2023-09-12T09:11:31;62.78;;;26.27;;
78612;SDS011;67933;51.060;3.638;2023-09-12T09:13:56;57.15;;;26.63;;
78612;SDS011;67933;51.060;3.638;2023-09-12T09:16:21;58.88;;;25.25;;
78612;SDS011;67933;51.060;3.638;2023-09-12T09:19:01;65.53;;;26.77;;
78612;SDS011;67933;51.060;3.638;2023-09-12T09:21:32;59.50;;;27.52;;
78612;SDS011;67933;51.060;3.638;2023-09-12T09:23:59;60.80;;;27.55;;
78612;SDS011;67933;51.060;3.638;2023-09-12T09:26:40;58.03;;;27.52;;
78612;SDS011;67933;51.060;3.638;2023-09-12T09:29:07;57.17;;;27.52;;
78612;SDS011;67933;51.060;3.638;2023-09-12T09:31:34;56.50;;;26.30;;
78612;SDS011;67933;51.060;3.638;2023-09-12T09:34:01;53.75;;;24.92;;
78612;SDS011;67933;51.060;3.638;2023-09-12T09:36:27;63.10;;;28.45;;
78612;SDS011;67933;51.060;3.638;2023-09-12T09:38:54;59.38;;;28.42;;
78612;SDS011;67933;51.060;3.638;2023-09-12T09:41:21;61.00;;;27.67;;
78612;SDS011;67933;51.060;3.638;2023-09-12T09:43:50;63.97;;;28.58;;
78612;SDS011;67933;51.060;3.638;2023-09-12T09:46:17;63.88;;;28.25;;
78612;SDS011;67933;51.060;3.638;2023-09-12T09:48:49;60.42;;;28.67;;
78612;SDS011;67933;51.060;3.638;2023-09-12T09:51:16;55.85;;;27.23;;
78612;SDS011;67933;51.060;3.638;2023-09-12T09:53:42;52.63;;;25.92;;
78612;SDS011;67933;51.060;3.638;2023-09-12T09:58:35;56.97;;;28.95;;
78612;SDS011;67933;51.060;3.638;2023-09-12T10:01:01;53.28;;;25.63;;
78612;SDS011;67933;51.060;3.638;2023-09-12T10:03:29;46.00;;;24.77;;
78612;SDS011;67933;51.060;3.638;2023-09-12T10:05:57;47.28;;;25.05;;
78612;SDS011;67933;51.060;3.638;2023-09-12T10:08:27;48.67;;;24.67;;
78612;SDS011;67933;51.060;3.638;2023-09-12T10:10:53;45.08;;;23.77;;
78612;SDS011;67933;51.060;3.638;2023-09-12T10:13:18;42.97;;;22.70;;
78612;SDS011;67933;51.060;3.638;2023-09-12T10:15:45;42.45;;;21.80;;
78612;SDS011;67933;51.060;3.638;2023-09-12T10:18:14;45.72;;;22.27;;
78612;SDS011;67933;51.060;3.638;2023-09-12T10:20:48;43.70;;;22.67;;
78612;SDS011;67933;51.060;3.638;2023-09-12T10:23:30;43.50;;;22.80;;
78612;SDS011;67933;51.060;3.638;2023-09-12T10:26:06;42.08;;;22.48;;
78612;SDS011;67933;51.060;3.638;2023-09-12T10:28:36;42.40;;;22.77;;
78612;SDS011;67933;51.060;3.638;2023-09-12T10:31:05;37.63;;;21.35;;
78612;SDS011;67933;51.060;3.638;2023-09-12T10:33:32;40.10;;;21.15;;
78612;SDS011;67933;51.060;3.638;2023-09-12T10:35:58;41.55;;;22.65;;
78612;SDS011;67933;51.060;3.638;2023-09-12T10:38:25;44.28;;;23.67;;
78612;SDS011;67933;51.060;3.638;2023-09-12T10:40:53;42.55;;;22.60;;
78612;SDS011;67933;51.060;3.638;2023-09-12T10:45:46;46.22;;;24.15;;
78612;SDS011;67933;51.060;3.638;2023-09-12T10:48:14;47.42;;;22.98;;
78612;SDS011;67933;51.060;3.638;2023-09-12T10:50:40;45.83;;;23.80;;
78612;SDS011;67933;51.060;3.638;2023-09-12T10:53:10;44.70;;;23.83;;
78612;SDS011;67933;51.060;3.638;2023-09-12T10:55:35;45.78;;;23.65;;
78612;SDS011;67933;51.060;3.638;2023-09-12T11:00:30;45.67;;;23.55;;
78612;SDS011;67933;51.060;3.638;2023-09-12T11:02:59;43.97;;;24.50;;
78612;SDS011;67933;51.060;3.638;2023-09-12T11:08:20;44.90;;;24.42;;
78612;SDS011;67933;51.060;3.638;2023-09-12T11:11:16;38.08;;;21.63;;
78612;SDS011;67933;51.060;3.638;2023-09-12T11:13:44;36.78;;;20.88;;
78612;SDS011;67933;51.060;3.638;2023-09-12T11:16:14;42.22;;;22.60;;
78612;SDS011;67933;51.060;3.638;2023-09-12T11:19:43;39.30;;;21.15;;
78612;SDS011;67933;51.060;3.638;2023-09-12T11:21:51;38.85;;;21.15;;
78612;SDS011;67933;51.060;3.638;2023-09-12T11:24:19;37.55;;;20.65;;
78612;SDS011;67933;51.060;3.638;2023-09-12T11:26:52;40.42;;;21.80;;
78612;SDS011;67933;51.060;3.638;2023-09-12T11:29:20;42.50;;;21.77;;
78612;SDS011;67933;51.060;3.638;2023-09-12T11:31:59;36.88;;;21.23;;
78612;SDS011;67933;51.060;3.638;2023-09-12T11:34:25;38.90;;;22.65;;
78612;SDS011;67933;51.060;3.638;2023-09-12T11:36:57;39.75;;;21.85;;
78612;SDS011;67933;51.060;3.638;2023-09-12T11:39:27;39.28;;;21.67;;
78612;SDS011;67933;51.060;3.638;2023-09-12T11:41:55;35.45;;;21.00;;
78612;SDS011;67933;51.060;3.638;2023-09-12T11:44:21;33.83;;;19.58;;
78612;SDS011;67933;51.060;3.638;2023-09-12T11:46:47;32.58;;;18.95;;
78612;SDS011;67933;51.060;3.638;2023-09-12T11:49:14;35.08;;;19.58;;
78612;SDS011;67933;51.060;3.638;2023-09-12T11:51:50;33.97;;;20.27;;
78612;SDS011;67933;51.060;3.638;2023-09-12T11:54:34;33.60;;;19.42;;
78612;SDS011;67933;51.060;3.638;2023-09-12T11:56:59;31.75;;;19.20;;
78612;SDS011;67933;51.060;3.638;2023-09-12T11:59:27;32.38;;;19.35;;
78612;SDS011;67933;51.060;3.638;2023-09-12T12:01:56;32.05;;;19.45;;
78612;SDS011;67933;51.060;3.638;2023-09-12T12:04:22;33.30;;;18.85;;
78612;SDS011;67933;51.060;3.638;2023-09-12T12:06:50;36.83;;;18.92;;
78612;SDS011;67933;51.060;3.638;2023-09-12T12:09:17;32.08;;;19.92;;
78612;SDS011;67933;51.060;3.638;2023-09-12T12:11:44;37.50;;;20.02;;
78612;SDS011;67933;51.060;3.638;2023-09-12T12:14:16;33.88;;;20.15;;
78612;SDS011;67933;51.060;3.638;2023-09-12T12:16:44;32.75;;;19.95;;
78612;SDS011;67933;51.060;3.638;2023-09-12T12:19:11;32.03;;;19.85;;
78612;SDS011;67933;51.060;3.638;2023-09-12T12:21:38;33.33;;;20.10;;
78612;SDS011;67933;51.060;3.638;2023-09-12T12:24:04;31.50;;;20.58;;
78612;SDS011;67933;51.060;3.638;2023-09-12T12:26:32;32.80;;;19.55;;
78612;SDS011;67933;51.060;3.638;2023-09-12T12:28:59;28.92;;;18.73;;
78612;SDS011;67933;51.060;3.638;2023-09-12T12:31:25;28.45;;;18.50;;
78612;SDS011;67933;51.060;3.638;2023-09-12T12:33:55;31.67;;;19.35;;
78612;SDS011;67933;51.060;3.638;2023-09-12T12:36:21;31.38;;;19.50;;
78612;SDS011;67933;51.060;3.638;2023-09-12T12:38:48;30.50;;;19.30;;
78612;SDS011;67933;51.060;3.638;2023-09-12T12:41:15;27.70;;;18.13;;
78612;SDS011;67933;51.060;3.638;2023-09-12T12:44:07;32.88;;;20.60;;
78612;SDS011;67933;51.060;3.638;2023-09-12T12:46:32;31.10;;;20.23;;
78612;SDS011;67933;51.060;3.638;2023-09-12T12:48:58;29.88;;;19.50;;
78612;SDS011;67933;51.060;3.638;2023-09-12T12:51:23;30.38;;;20.10;;
78612;SDS011;67933;51.060;3.638;2023-09-12T12:53:50;29.83;;;20.35;;
78612;SDS011;67933;51.060;3.638;2023-09-12T12:56:18;29.55;;;19.95;;
78612;SDS011;67933;51.060;3.638;2023-09-12T12:58:52;31.42;;;19.92;;
78612;SDS011;67933;51.060;3.638;2023-09-12T13:01:20;31.33;;;19.70;;
78612;SDS011;67933;51.060;3.638;2023-09-12T13:03:46;31.17;;;19.83;;
78612;SDS011;67933;51.060;3.638;2023-09-12T13:06:12;28.60;;;17.98;;
78612;SDS011;67933;51.060;3.638;2023-09-12T13:08:43;26.92;;;17.00;;
78612;SDS011;67933;51.060;3.638;2023-09-12T13:11:10;26.60;;;18.27;;
78612;SDS011;67933;51.060;3.638;2023-09-12T13:13:37;23.60;;;16.88;;
78612;SDS011;67933;51.060;3.638;2023-09-12T13:16:04;26.77;;;18.83;;
78612;SDS011;67933;51.060;3.638;2023-09-12T13:20:56;29.08;;;19.73;;
78612;SDS011;67933;51.060;3.638;2023-09-12T13:23:21;27.25;;;18.83;;
78612;SDS011;67933;51.060;3.638;2023-09-12T13:25:49;27.95;;;18.90;;
78612;SDS011;67933;51.060;3.638;2023-09-12T13:28:14;28.25;;;18.88;;
78612;SDS011;67933;51.060;3.638;2023-09-12T13:30:40;28.70;;;19.38;;
78612;SDS011;67933;51.060;3.638;2023-09-12T13:33:05;29.63;;;21.08;;
78612;SDS011;67933;51.060;3.638;2023-09-12T13:35:31;26.27;;;18.40;;
78612;SDS011;67933;51.060;3.638;2023-09-12T13:37:57;27.58;;;18.77;;
78612;SDS011;67933;51.060;3.638;2023-09-12T13:40:22;27.15;;;19.20;;
78612;SDS011;67933;51.060;3.638;2023-09-12T13:42:48;26.80;;;18.70;;
78612;SDS011;67933;51.060;3.638;2023-09-12T13:45:13;29.15;;;19.20;;
78612;SDS011;67933;51.060;3.638;2023-09-12T13:47:38;29.40;;;19.45;;
78612;SDS011;67933;51.060;3.638;2023-09-12T13:50:04;28.38;;;18.30;;
78612;SDS011;67933;51.060;3.638;2023-09-12T13:52:30;28.35;;;19.08;;
78612;SDS011;67933;51.060;3.638;2023-09-12T13:54:55;27.63;;;19.48;;
78612;SDS011;67933;51.060;3.638;2023-09-12T13:57:21;27.77;;;19.00;;
78612;SDS011;67933;51.060;3.638;2023-09-12T13:59:46;27.23;;;18.80;;
78612;SDS011;67933;51.060;3.638;2023-09-12T14:02:12;30.00;;;19.95;;
78612;SDS011;67933;51.060;3.638;2023-09-12T14:04:38;27.83;;;19.00;;
78612;SDS011;67933;51.060;3.638;2023-09-12T14:07:04;29.08;;;19.30;;
78612;SDS011;67933;51.060;3.638;2023-09-12T14:09:29;26.42;;;18.98;;
78612;SDS011;67933;51.060;3.638;2023-09-12T14:11:54;29.63;;;19.27;;
78612;SDS011;67933;51.060;3.638;2023-09-12T14:14:20;30.48;;;18.85;;
78612;SDS011;67933;51.060;3.638;2023-09-12T14:16:45;25.65;;;18.42;;
78612;SDS011;67933;51.060;3.638;2023-09-12T14:19:11;29.70;;;20.05;;
78612;SDS011;67933;51.060;3.638;2023-09-12T14:21:36;28.17;;;18.50;;
78612;SDS011;67933;51.060;3.638;2023-09-12T14:24:02;27.45;;;18.13;;
78612;SDS011;67933;51.060;3.638;2023-09-12T14:26:28;31.60;;;18.75;;
78612;SDS011;67933;51.060;3.638;2023-09-12T14:28:54;27.52;;;18.17;;
78612;SDS011;67933;51.060;3.638;2023-09-12T14:31:20;26.67;;;16.67;;
78612;SDS011;67933;51.060;3.638;2023-09-12T14:33:48;26.77;;;17.77;;
78612;SDS011;67933;51.060;3.638;2023-09-12T14:36:13;23.13;;;16.35;;
78612;SDS011;67933;51.060;3.638;2023-09-12T14:38:39;25.83;;;16.77;;
78612;SDS011;67933;51.060;3.638;2023-09-12T14:41:04;26.35;;;16.58;;
78612;SDS011;67933;51.060;3.638;2023-09-12T14:43:29;23.33;;;16.25;;
78612;SDS011;67933;51.060;3.638;2023-09-12T14:45:55;27.17;;;16.75;;
78612;SDS011;67933;51.060;3.638;2023-09-12T14:48:20;25.42;;;16.38;;